VOE1304 LIPY-LIEO
Flight info
| Callsign | VOE1304 |
|---|---|
| Flight time | 0h 40m |
| Altitude | 19000 |
| Route | ERLIT L865 VALMA L5 BATOX |
| Aircraft | A319/M-SDE3FGHIRWY/LB1 |
Departure
| Time | 2026-04-15 08:07 |
|---|---|
| Airport | Marche Airport (LIPY) |
Arrival
| Time | 2026-04-15 08:47 |
|---|---|
| Airport | Olbia Costa Smeralda Airport (LIEO) |
| Time | Latitude | Longitude | Altitude | Speed | Heading |
|---|---|---|---|---|---|
| 2026-04-15 07:53 | 43.60828 | 13.35551 | 45 ft | 0 kts | 134° |
| 2026-04-15 07:59 | 43.60827 | 13.35552 | 45 ft | 0 kts | 134° |
| 2026-04-15 07:59 | 43.60824 | 13.35556 | 45 ft | 1 kts | 135° |
| 2026-04-15 08:00 | 43.60817 | 13.35560 | 46 ft | 1 kts | 176° |
| 2026-04-15 08:00 | 43.60809 | 13.35551 | 46 ft | 2 kts | 245° |
| 2026-04-15 08:00 | 43.60816 | 13.35532 | 46 ft | 3 kts | 313° |
| 2026-04-15 08:00 | 43.60836 | 13.35504 | 45 ft | 4 kts | 315° |
| 2026-04-15 08:01 | 43.60870 | 13.35504 | 45 ft | 7 kts | 45° |
| 2026-04-15 08:01 | 43.60918 | 13.35554 | 44 ft | 10 kts | 14° |
| 2026-04-15 08:01 | 43.60999 | 13.35558 | 43 ft | 12 kts | 360° |
| 2026-04-15 08:01 | 43.61093 | 13.35558 | 43 ft | 14 kts | 360° |
| 2026-04-15 08:02 | 43.61186 | 13.35615 | 42 ft | 16 kts | 44° |
| 2026-04-15 08:02 | 43.61272 | 13.35733 | 40 ft | 18 kts | 44° |
| 2026-04-15 08:02 | 43.61367 | 13.35865 | 39 ft | 19 kts | 44° |
| 2026-04-15 08:02 | 43.61466 | 13.36000 | 39 ft | 20 kts | 44° |
| 2026-04-15 08:03 | 43.61571 | 13.36144 | 37 ft | 21 kts | 44° |
| 2026-04-15 08:03 | 43.61681 | 13.36295 | 35 ft | 23 kts | 45° |
| 2026-04-15 08:03 | 43.61798 | 13.36454 | 33 ft | 24 kts | 45° |
| 2026-04-15 08:03 | 43.61917 | 13.36619 | 32 ft | 24 kts | 45° |
| 2026-04-15 08:04 | 43.62038 | 13.36784 | 31 ft | 24 kts | 45° |
| 2026-04-15 08:04 | 43.62163 | 13.36956 | 29 ft | 25 kts | 44° |
| 2026-04-15 08:04 | 43.62289 | 13.37128 | 27 ft | 19 kts | 44° |
| 2026-04-15 08:04 | 43.62373 | 13.37246 | 27 ft | 16 kts | 44° |
| 2026-04-15 08:05 | 43.62457 | 13.37359 | 26 ft | 17 kts | 44° |
| 2026-04-15 08:05 | 43.62524 | 13.37453 | 25 ft | 11 kts | 47° |
| 2026-04-15 08:05 | 43.62542 | 13.37535 | 26 ft | 7 kts | 65° |
| 2026-04-15 08:05 | 43.62567 | 13.37517 | 26 ft | 7 kts | 254° |
| 2026-04-15 08:06 | 43.62523 | 13.37449 | 25 ft | 10 kts | 225° |
| 2026-04-15 08:06 | 43.62470 | 13.37376 | 26 ft | 11 kts | 225° |
| 2026-04-15 08:06 | 43.62313 | 13.37161 | 26 ft | 68 kts | 225° |
| 2026-04-15 08:06 | 43.61794 | 13.36448 | 33 ft | 139 kts | 224° |
| 2026-04-15 08:07 | 43.61015 | 13.35376 | 408 ft | 164 kts | 224° |
| 2026-04-15 08:07 | 43.60214 | 13.34256 | 1038 ft | 172 kts | 224° |
| 2026-04-15 08:07 | 43.59390 | 13.33068 | 1794 ft | 175 kts | 223° |
| 2026-04-15 08:07 | 43.58524 | 13.31816 | 2382 ft | 188 kts | 223° |
| 2026-04-15 08:08 | 43.57574 | 13.30467 | 2916 ft | 205 kts | 223° |
| 2026-04-15 08:08 | 43.56552 | 13.29035 | 3434 ft | 221 kts | 223° |
| 2026-04-15 08:08 | 43.55438 | 13.27479 | 4034 ft | 235 kts | 223° |
| 2026-04-15 08:08 | 43.54663 | 13.26397 | 4481 ft | 243 kts | 223° |
| 2026-04-15 08:09 | 43.53093 | 13.24206 | 5746 ft | 243 kts | 223° |
| 2026-04-15 08:09 | 43.51849 | 13.22692 | 6648 ft | 243 kts | 209° |
| 2026-04-15 08:09 | 43.50310 | 13.21701 | 7399 ft | 248 kts | 194° |
| 2026-04-15 08:09 | 43.48615 | 13.20981 | 7972 ft | 265 kts | 192° |
| 2026-04-15 08:10 | 43.46787 | 13.20257 | 8548 ft | 282 kts | 193° |
| 2026-04-15 08:10 | 43.44899 | 13.19498 | 9372 ft | 289 kts | 193° |
| 2026-04-15 08:10 | 43.42977 | 13.18706 | 10348 ft | 290 kts | 194° |
| 2026-04-15 08:10 | 43.41031 | 13.17899 | 11036 ft | 302 kts | 194° |
| 2026-04-15 08:11 | 43.39032 | 13.16804 | 11490 ft | 323 kts | 206° |
| 2026-04-15 08:11 | 43.37129 | 13.14993 | 11895 ft | 345 kts | 219° |
| 2026-04-15 08:11 | 43.35412 | 13.12610 | 12268 ft | 364 kts | 225° |
| 2026-04-15 08:11 | 43.33656 | 13.09975 | 12822 ft | 375 kts | 226° |
| 2026-04-15 08:12 | 43.31910 | 13.07348 | 13583 ft | 379 kts | 225° |
| 2026-04-15 08:12 | 43.30121 | 13.04682 | 14360 ft | 382 kts | 225° |
| 2026-04-15 08:12 | 43.28334 | 13.02031 | 15221 ft | 381 kts | 225° |
| 2026-04-15 08:12 | 43.26539 | 12.99359 | 15956 ft | 385 kts | 225° |
| 2026-04-15 08:13 | 43.24716 | 12.96650 | 16616 ft | 389 kts | 225° |
| 2026-04-15 08:13 | 43.22885 | 12.93934 | 17255 ft | 393 kts | 225° |
| 2026-04-15 08:13 | 43.21031 | 12.91186 | 17884 ft | 397 kts | 226° |
| 2026-04-15 08:13 | 43.19150 | 12.88405 | 18495 ft | 401 kts | 225° |
| 2026-04-15 08:14 | 43.17242 | 12.85594 | 19123 ft | 404 kts | 225° |
| 2026-04-15 08:14 | 43.15318 | 12.82763 | 19732 ft | 407 kts | 225° |
| 2026-04-15 08:14 | 43.13412 | 12.79957 | 20317 ft | 410 kts | 225° |
| 2026-04-15 08:14 | 43.11468 | 12.77101 | 20893 ft | 413 kts | 225° |
| 2026-04-15 08:15 | 43.09501 | 12.74214 | 21448 ft | 416 kts | 225° |
| 2026-04-15 08:15 | 43.07530 | 12.71323 | 22002 ft | 419 kts | 225° |
| 2026-04-15 08:15 | 43.05527 | 12.68388 | 22545 ft | 422 kts | 225° |
| 2026-04-15 08:15 | 43.03522 | 12.65454 | 23055 ft | 425 kts | 225° |
| 2026-04-15 08:16 | 43.01504 | 12.62495 | 23559 ft | 428 kts | 225° |
| 2026-04-15 08:16 | 42.99471 | 12.59516 | 24060 ft | 431 kts | 225° |
| 2026-04-15 08:16 | 42.97445 | 12.56547 | 24559 ft | 434 kts | 225° |
| 2026-04-15 08:16 | 42.95367 | 12.53507 | 25028 ft | 437 kts | 225° |
| 2026-04-15 08:17 | 42.93295 | 12.50478 | 25461 ft | 440 kts | 225° |
| 2026-04-15 08:17 | 42.91205 | 12.47421 | 25895 ft | 444 kts | 225° |
| 2026-04-15 08:17 | 42.89090 | 12.44332 | 26318 ft | 447 kts | 225° |
| 2026-04-15 08:17 | 42.86978 | 12.41249 | 26735 ft | 450 kts | 225° |
| 2026-04-15 08:18 | 42.84847 | 12.38143 | 27142 ft | 452 kts | 225° |
| 2026-04-15 08:18 | 42.82709 | 12.35031 | 27550 ft | 455 kts | 225° |
| 2026-04-15 08:18 | 42.80533 | 12.31870 | 27932 ft | 458 kts | 224° |
| 2026-04-15 08:18 | 42.78361 | 12.28718 | 28385 ft | 458 kts | 224° |
| 2026-04-15 08:19 | 42.76199 | 12.25588 | 28942 ft | 456 kts | 224° |
| 2026-04-15 08:19 | 42.74020 | 12.22436 | 29481 ft | 455 kts | 224° |
| 2026-04-15 08:19 | 42.71874 | 12.19335 | 29909 ft | 456 kts | 224° |
| 2026-04-15 08:19 | 42.69677 | 12.16167 | 30269 ft | 458 kts | 224° |
| 2026-04-15 08:20 | 42.67511 | 12.13057 | 30620 ft | 460 kts | 223° |
| 2026-04-15 08:20 | 42.65252 | 12.09989 | 30921 ft | 460 kts | 220° |
| 2026-04-15 08:20 | 42.62923 | 12.07027 | 30990 ft | 462 kts | 222° |
| 2026-04-15 08:21 | 42.58583 | 12.00597 | 30993 ft | 464 kts | 225° |
| 2026-04-15 08:21 | 42.54298 | 11.94074 | 30993 ft | 464 kts | 225° |
| 2026-04-15 08:22 | 42.49976 | 11.87581 | 30992 ft | 466 kts | 225° |
| 2026-04-15 08:22 | 42.45613 | 11.81087 | 30986 ft | 467 kts | 225° |
| 2026-04-15 08:23 | 42.41249 | 11.74620 | 30985 ft | 468 kts | 225° |
| 2026-04-15 08:23 | 42.36862 | 11.68135 | 30987 ft | 467 kts | 225° |
| 2026-04-15 08:24 | 42.32507 | 11.61710 | 30986 ft | 468 kts | 225° |
| 2026-04-15 08:24 | 42.28111 | 11.55244 | 30980 ft | 469 kts | 225° |
| 2026-04-15 08:25 | 42.23709 | 11.48782 | 30976 ft | 470 kts | 225° |
| 2026-04-15 08:25 | 42.19295 | 11.42321 | 30989 ft | 471 kts | 225° |
| 2026-04-15 08:26 | 42.14846 | 11.35818 | 30978 ft | 472 kts | 225° |
| 2026-04-15 08:26 | 42.10418 | 11.29359 | 30753 ft | 465 kts | 225° |
| 2026-04-15 08:26 | 42.08238 | 11.26189 | 30025 ft | 467 kts | 225° |
| 2026-04-15 08:27 | 42.06034 | 11.22988 | 29251 ft | 466 kts | 225° |
| 2026-04-15 08:27 | 42.03845 | 11.19810 | 28473 ft | 468 kts | 225° |
| 2026-04-15 08:27 | 42.01614 | 11.16575 | 27679 ft | 471 kts | 225° |
| 2026-04-15 08:27 | 41.99414 | 11.13388 | 26903 ft | 470 kts | 225° |
| 2026-04-15 08:28 | 41.97197 | 11.10174 | 26123 ft | 467 kts | 225° |
| 2026-04-15 08:28 | 41.94995 | 11.06991 | 25345 ft | 464 kts | 226° |
| 2026-04-15 08:28 | 41.92837 | 11.03873 | 24569 ft | 462 kts | 225° |
| 2026-04-15 08:28 | 41.90652 | 11.00718 | 23787 ft | 459 kts | 226° |
| 2026-04-15 08:29 | 41.88506 | 10.97626 | 23013 ft | 456 kts | 225° |
| 2026-04-15 08:29 | 41.86349 | 10.94520 | 22244 ft | 454 kts | 226° |
| 2026-04-15 08:29 | 41.84196 | 10.91424 | 21535 ft | 450 kts | 226° |
| 2026-04-15 08:29 | 41.82104 | 10.88416 | 20990 ft | 442 kts | 226° |
| 2026-04-15 08:30 | 41.80029 | 10.85436 | 20453 ft | 436 kts | 226° |
| 2026-04-15 08:30 | 41.77959 | 10.82468 | 19942 ft | 429 kts | 226° |
| 2026-04-15 08:30 | 41.75951 | 10.79590 | 19475 ft | 422 kts | 225° |
| 2026-04-15 08:30 | 41.73983 | 10.76771 | 18982 ft | 417 kts | 225° |
| 2026-04-15 08:31 | 41.71991 | 10.73923 | 18476 ft | 413 kts | 225° |
| 2026-04-15 08:31 | 41.70041 | 10.71137 | 17969 ft | 410 kts | 225° |
| 2026-04-15 08:31 | 41.68118 | 10.68395 | 17476 ft | 406 kts | 225° |
| 2026-04-15 08:31 | 41.66207 | 10.65672 | 16997 ft | 403 kts | 225° |
| 2026-04-15 08:32 | 41.64306 | 10.62964 | 16533 ft | 399 kts | 225° |
| 2026-04-15 08:32 | 41.62418 | 10.60279 | 16053 ft | 396 kts | 225° |
| 2026-04-15 08:32 | 41.60531 | 10.57595 | 15556 ft | 394 kts | 225° |
| 2026-04-15 08:32 | 41.58670 | 10.54952 | 15090 ft | 391 kts | 225° |
| 2026-04-15 08:33 | 41.56807 | 10.52308 | 14611 ft | 388 kts | 225° |
| 2026-04-15 08:33 | 41.54970 | 10.49703 | 14141 ft | 385 kts | 225° |
| 2026-04-15 08:33 | 41.53156 | 10.47133 | 13679 ft | 382 kts | 225° |
| 2026-04-15 08:33 | 41.51346 | 10.44572 | 13220 ft | 379 kts | 225° |
| 2026-04-15 08:34 | 41.49550 | 10.42032 | 12720 ft | 377 kts | 225° |
| 2026-04-15 08:34 | 41.47760 | 10.39504 | 12218 ft | 374 kts | 226° |
| 2026-04-15 08:34 | 41.45970 | 10.36979 | 11689 ft | 373 kts | 226° |
| 2026-04-15 08:34 | 41.44195 | 10.34474 | 11181 ft | 370 kts | 225° |
| 2026-04-15 08:35 | 41.42458 | 10.32025 | 10844 ft | 361 kts | 225° |
| 2026-04-15 08:35 | 41.40762 | 10.29634 | 10658 ft | 348 kts | 225° |
| 2026-04-15 08:35 | 41.39135 | 10.27341 | 10477 ft | 335 kts | 225° |
| 2026-04-15 08:35 | 41.37553 | 10.25116 | 10311 ft | 324 kts | 225° |
| 2026-04-15 08:36 | 41.36042 | 10.22994 | 10161 ft | 312 kts | 225° |
| 2026-04-15 08:36 | 41.34578 | 10.20937 | 10022 ft | 302 kts | 225° |
| 2026-04-15 08:36 | 41.33144 | 10.18925 | 9719 ft | 299 kts | 225° |
| 2026-04-15 08:36 | 41.31724 | 10.16936 | 9360 ft | 298 kts | 225° |
| 2026-04-15 08:37 | 41.30294 | 10.14935 | 9007 ft | 298 kts | 225° |
| 2026-04-15 08:37 | 41.28864 | 10.12932 | 8670 ft | 296 kts | 225° |
| 2026-04-15 08:37 | 41.27464 | 10.10973 | 8346 ft | 294 kts | 226° |
| 2026-04-15 08:37 | 41.26044 | 10.08989 | 8013 ft | 292 kts | 226° |
| 2026-04-15 08:38 | 41.24662 | 10.07057 | 7689 ft | 291 kts | 226° |
| 2026-04-15 08:38 | 41.23269 | 10.05111 | 7359 ft | 290 kts | 226° |
| 2026-04-15 08:38 | 41.21884 | 10.03177 | 7032 ft | 288 kts | 226° |
| 2026-04-15 08:38 | 41.20518 | 10.01275 | 6710 ft | 287 kts | 226° |
| 2026-04-15 08:39 | 41.19144 | 9.99358 | 6385 ft | 286 kts | 226° |
| 2026-04-15 08:39 | 41.17779 | 9.97457 | 6039 ft | 285 kts | 226° |
| 2026-04-15 08:39 | 41.16406 | 9.95546 | 5715 ft | 284 kts | 226° |
| 2026-04-15 08:39 | 41.15053 | 9.93662 | 5396 ft | 283 kts | 226° |
| 2026-04-15 08:40 | 41.13696 | 9.91776 | 5068 ft | 281 kts | 227° |
| 2026-04-15 08:40 | 41.12359 | 9.89918 | 4756 ft | 279 kts | 227° |
| 2026-04-15 08:40 | 41.11024 | 9.88064 | 4447 ft | 278 kts | 227° |
| 2026-04-15 08:40 | 41.09694 | 9.86218 | 4131 ft | 276 kts | 227° |
| 2026-04-15 08:41 | 41.08376 | 9.84390 | 3816 ft | 274 kts | 227° |
| 2026-04-15 08:41 | 41.07075 | 9.82588 | 3635 ft | 266 kts | 227° |
| 2026-04-15 08:41 | 41.05814 | 9.80843 | 3553 ft | 255 kts | 227° |
| 2026-04-15 08:41 | 41.04610 | 9.79193 | 3475 ft | 244 kts | 225° |
| 2026-04-15 08:42 | 41.03453 | 9.77605 | 3400 ft | 234 kts | 230° |
| 2026-04-15 08:42 | 41.02470 | 9.75956 | 3278 ft | 227 kts | 237° |
| 2026-04-15 08:42 | 41.01612 | 9.74277 | 3248 ft | 214 kts | 238° |
| 2026-04-15 08:42 | 41.00800 | 9.72657 | 3223 ft | 206 kts | 238° |
| 2026-04-15 08:43 | 41.00000 | 9.71088 | 3178 ft | 203 kts | 237° |
| 2026-04-15 08:43 | 40.99217 | 9.69586 | 2986 ft | 197 kts | 237° |
| 2026-04-15 08:43 | 40.98443 | 9.68113 | 2711 ft | 196 kts | 237° |
| 2026-04-15 08:43 | 40.97674 | 9.66656 | 2431 ft | 189 kts | 238° |
| 2026-04-15 08:44 | 40.96931 | 9.65248 | 2162 ft | 180 kts | 238° |
| 2026-04-15 08:44 | 40.96239 | 9.63934 | 1948 ft | 168 kts | 238° |
| 2026-04-15 08:44 | 40.95605 | 9.62729 | 1720 ft | 156 kts | 239° |
| 2026-04-15 08:44 | 40.95006 | 9.61588 | 1511 ft | 146 kts | 239° |
| 2026-04-15 08:45 | 40.94432 | 9.60490 | 1335 ft | 145 kts | 239° |
| 2026-04-15 08:45 | 40.93863 | 9.59405 | 1160 ft | 143 kts | 239° |
| 2026-04-15 08:45 | 40.93298 | 9.58327 | 977 ft | 141 kts | 239° |
| 2026-04-15 08:45 | 40.92746 | 9.57274 | 795 ft | 139 kts | 239° |
| 2026-04-15 08:46 | 40.92197 | 9.56227 | 607 ft | 138 kts | 239° |
| 2026-04-15 08:46 | 40.91656 | 9.55190 | 421 ft | 137 kts | 239° |
| 2026-04-15 08:46 | 40.91119 | 9.54159 | 236 ft | 135 kts | 239° |
| 2026-04-15 08:46 | 40.90583 | 9.53145 | 70 ft | 133 kts | 239° |
| 2026-04-15 08:47 | 40.90113 | 9.52228 | 47 ft | 99 kts | 235° |
| 2026-04-15 08:47 | 40.89816 | 9.51667 | 47 ft | 50 kts | 229° |
| 2026-04-15 08:47 | 40.89690 | 9.51420 | 47 ft | 26 kts | 235° |
| 2026-04-15 08:47 | 40.89625 | 9.51252 | 47 ft | 17 kts | 275° |
| 2026-04-15 08:48 | 40.89660 | 9.51129 | 47 ft | 14 kts | 316° |
| 2026-04-15 08:48 | 40.89740 | 9.51130 | 47 ft | 12 kts | 50° |
| 2026-04-15 08:48 | 40.89791 | 9.51227 | 47 ft | 13 kts | 56° |
| 2026-04-15 08:48 | 40.89847 | 9.51332 | 47 ft | 14 kts | 56° |
| 2026-04-15 08:49 | 40.89908 | 9.51448 | 47 ft | 14 kts | 56° |
| 2026-04-15 08:49 | 40.89969 | 9.51512 | 47 ft | 11 kts | 8° |
| 2026-04-15 08:49 | 40.90038 | 9.51500 | 47 ft | 10 kts | 328° |
| 2026-04-15 08:49 | 40.90082 | 9.51492 | 47 ft | 6 kts | 11° |
| 2026-04-15 08:50 | 40.90123 | 9.51472 | 47 ft | 4 kts | 324° |
| 2026-04-15 08:50 | 40.90138 | 9.51458 | 47 ft | 0 kts | 324° |
| 2026-04-15 08:50 | 40.90139 | 9.51457 | 47 ft | 0 kts | 324° |